Time;durP1;ratioP1;P1;durP2;ratioP2;P2;SDS_P1;SDS_P2;PMS_P1;PMS_P2;Temp;Humidity;BMP_temperature;BMP_pressure;BME280_temperature;BME280_humidity;BME280_pressure;Samples;Min_cycle;Max_cycle;Signal;HPM_P1;HPM_P2
2024/03/10 00:01:41;;;;;;;32.45;17.67;;;;;;;4.16;100.00;99610.44;4941863;23;20094;-87
2024/03/10 00:04:08;;;;;;;34.70;18.90;;;;;;;4.14;100.00;99605.28;4930979;28;20081;-85
2024/03/10 00:06:36;;;;;;;30.88;18.88;;;;;;;4.13;100.00;99616.47;4942237;28;20054;-87
2024/03/10 00:09:03;;;;;;;32.00;18.58;;;;;;;4.12;100.00;99612.19;4938278;28;20047;-86
2024/03/10 00:11:32;;;;;;;33.20;18.08;;;;;;;4.10;100.00;99617.34;4954275;28;20510;-85
2024/03/10 00:14:03;;;;;;;29.88;17.30;;;;;;;4.10;100.00;99613.91;4935723;28;20058;-85
2024/03/10 00:16:31;;;;;;;30.67;18.90;;;;;;;4.08;100.00;99613.03;4933970;28;20047;-86
2024/03/10 00:19:00;;;;;;;38.53;17.98;;;;;;;4.09;100.00;99609.59;4959385;28;20121;-85
2024/03/10 00:21:30;;;;;;;34.47;19.77;;;;;;;4.08;100.00;99600.97;4957262;28;20066;-87
2024/03/10 00:24:02;;;;;;;34.45;20.35;;;;;;;4.08;100.00;99600.97;4940981;28;20451;-87
2024/03/10 00:26:29;;;;;;;37.83;19.48;;;;;;;4.04;100.00;99599.25;4938724;29;20062;-85
2024/03/10 00:28:58;;;;;;;33.45;19.25;;;;;;;4.01;100.00;99590.59;4957131;28;20131;-84
2024/03/10 00:31:27;;;;;;;33.10;17.67;;;;;;;4.01;100.00;99594.03;4939046;28;20043;-85
2024/03/10 00:33:54;;;;;;;32.30;18.42;;;;;;;4.01;100.00;99594.03;4958142;28;20101;-85
2024/03/10 00:36:21;;;;;;;34.58;19.88;;;;;;;4.01;100.00;99588.84;4949998;28;20573;-85
2024/03/10 00:38:48;;;;;;;35.22;19.95;;;;;;;4.02;100.00;99589.75;4941127;29;20335;-86
2024/03/10 00:41:15;;;;;;;33.38;19.77;;;;;;;3.97;100.00;99592.31;4944129;28;20054;-84
2024/03/10 00:43:41;;;;;;;36.97;19.65;;;;;;;3.96;100.00;99583.69;4959694;28;20518;-84
2024/03/10 00:46:08;;;;;;;34.92;19.08;;;;;;;3.97;100.00;99587.97;4958623;28;20050;-86
2024/03/10 00:48:35;;;;;;;36.75;20.67;;;;;;;3.95;100.00;99600.09;4958666;28;20057;-85
2024/03/10 00:51:02;;;;;;;33.40;19.25;;;;;;;3.92;100.00;99589.69;4933776;28;20106;-86
2024/03/10 00:53:28;;;;;;;35.63;19.95;;;;;;;3.92;100.00;99591.44;4939616;29;20058;-85
2024/03/10 00:55:56;;;;;;;33.50;19.23;;;;;;;3.88;100.00;99598.34;4944721;28;20119;-85
2024/03/10 00:58:24;;;;;;;32.75;19.80;;;;;;;3.87;100.00;99591.44;4921619;29;20075;-85
2024/03/10 01:00:51;;;;;;;34.50;19.48;;;;;;;3.86;100.00;99592.31;4910956;28;20047;-85
2024/03/10 01:03:17;;;;;;;38.20;21.38;;;;;;;3.85;100.00;99593.16;4939737;29;20503;-85
2024/03/10 01:05:47;;;;;;;35.97;19.88;;;;;;;3.84;100.00;99588.84;4929848;29;20055;-84
2024/03/10 01:08:14;;;;;;;39.13;21.42;;;;;;;3.86;100.00;99597.50;4925637;28;20051;-85
2024/03/10 01:10:40;;;;;;;42.65;22.33;;;;;;;3.83;100.00;99592.28;4931766;28;20090;-83
2024/03/10 01:13:07;;;;;;;31.42;19.20;;;;;;;3.83;100.00;99591.44;4942933;28;20070;-86
2024/03/10 01:15:36;;;;;;;34.97;20.58;;;;;;;3.81;100.00;99592.28;4934162;28;20054;-86
2024/03/10 01:18:04;;;;;;;35.30;19.15;;;;;;;3.79;100.00;99590.56;4942200;28;20053;-83
2024/03/10 01:20:31;;;;;;;35.92;20.17;;;;;;;3.78;100.00;99591.41;4931594;29;20098;-85
2024/03/10 01:22:58;;;;;;;35.85;21.05;;;;;;;3.78;100.00;99591.41;4931244;28;20046;-86
2024/03/10 01:25:25;;;;;;;36.70;21.75;;;;;;;3.75;100.00;99588.84;4924941;28;20048;-87
2024/03/10 01:27:51;;;;;;;32.30;21.02;;;;;;;3.76;100.00;99583.66;4934404;29;20047;-85
2024/03/10 01:30:20;;;;;;;35.78;20.48;;;;;;;3.75;100.00;99581.06;4922743;28;20110;-85
2024/03/10 01:32:47;;;;;;;37.80;20.67;;;;;;;3.73;100.00;99582.78;4918625;28;20049;-84
2024/03/10 01:35:17;;;;;;;40.92;21.30;;;;;;;3.70;100.00;99573.28;4932830;28;20086;-86
2024/03/10 01:37:47;;;;;;;36.08;20.63;;;;;;;3.68;100.00;99575.03;4941344;29;20051;-86
2024/03/10 01:40:17;;;;;;;39.20;21.85;;;;;;;3.67;100.00;99567.25;4924672;28;20039;-86
2024/03/10 01:42:44;;;;;;;41.40;22.20;;;;;;;3.63;100.00;99562.06;4932021;29;20055;-87
2024/03/10 01:45:11;;;;;;;35.50;20.83;;;;;;;3.64;100.00;99557.75;4942515;28;20050;-86
2024/03/10 01:47:38;;;;;;;40.53;22.40;;;;;;;3.63;100.00;99551.72;4920299;29;20134;-86
2024/03/10 01:50:07;;;;;;;43.45;20.75;;;;;;;3.58;100.00;99548.25;4942615;28;20102;-84
2024/03/10 01:52:35;;;;;;;42.13;21.95;;;;;;;3.58;100.00;99548.25;4944876;29;20106;-87
2024/03/10 01:55:02;;;;;;;38.85;21.90;;;;;;;3.57;100.00;99550.84;4941244;28;20058;-85
2024/03/10 01:57:30;;;;;;;38.45;21.45;;;;;;;3.55;100.00;99553.44;4944081;28;20480;-86
2024/03/10 02:00:05;;;;;;;43.85;22.63;;;;;;;3.52;100.00;99552.56;4939130;28;20806;-85
2024/03/10 02:02:32;;;;;;;39.08;20.60;;;;;;;3.52;100.00;99552.56;4912707;29;20089;-85
2024/03/10 02:05:00;;;;;;;43.92;22.38;;;;;;;3.47;100.00;99558.59;4936662;28;20055;-87
2024/03/10 02:07:28;;;;;;;39.33;21.58;;;;;;;3.49;100.00;99553.41;4922815;28;20131;-87
2024/03/10 02:09:56;;;;;;;37.00;21.13;;;;;;;3.48;100.00;99562.91;4940130;28;20055;-87
2024/03/10 02:12:27;;;;;;;41.28;23.35;;;;;;;3.46;100.00;99568.94;4927401;29;20043;-86
2024/03/10 02:15:06;;;;;;;39.47;23.02;;;;;;;3.44;100.00;99571.53;4946016;28;20054;-84
2024/03/10 02:17:36;;;;;;;42.25;22.80;;;;;;;3.46;100.00;99576.69;4925800;29;20067;-85
2024/03/10 02:20:19;;;;;;;41.85;23.05;;;;;;;3.42;100.00;99569.78;4938413;28;20043;-85
2024/03/10 02:22:53;;;;;;;46.95;25.45;;;;;;;3.38;100.00;99566.31;4932119;28;20051;-82
2024/03/10 02:25:24;;;;;;;38.35;21.88;;;;;;;3.36;100.00;99562.84;4927297;28;20059;-86
2024/03/10 02:27:53;;;;;;;41.58;23.48;;;;;;;3.36;100.00;99564.59;4928689;28;20051;-85
2024/03/10 02:30:29;;;;;;;44.88;23.73;;;;;;;3.34;100.00;99559.41;4929442;28;20051;-85
2024/03/10 02:49:21;;;;;;;44.17;23.65;;;;;;;3.24;100.00;99557.66;4938597;28;20398;-87
2024/03/10 02:51:49;;;;;;;42.78;22.38;;;;;;;3.20;100.00;99555.94;4936207;29;20101;-84
2024/03/10 02:54:16;;;;;;;41.70;24.63;;;;;;;3.17;100.00;99561.06;4942900;28;20047;-87
2024/03/10 02:56:43;;;;;;;43.25;25.80;;;;;;;3.14;100.00;99567.09;4926060;29;20055;-87
2024/03/10 02:59:12;;;;;;;46.70;25.65;;;;;;;3.12;100.00;99556.75;4934780;28;20050;-86
2024/03/10 03:01:38;;;;;;;49.10;25.35;;;;;;;3.09;100.00;99558.47;4937649;29;20373;-87
2024/03/10 03:04:05;;;;;;;45.35;23.73;;;;;;;3.09;100.00;99559.34;4939437;28;20067;-85
2024/03/10 03:06:32;;;;;;;43.05;23.67;;;;;;;3.08;100.00;99549.00;4942195;28;20056;-82
2024/03/10 03:08:59;;;;;;;42.38;24.67;;;;;;;3.02;100.00;99544.66;4940289;29;20495;-85
2024/03/10 03:11:26;;;;;;;48.50;25.63;;;;;;;3.02;100.00;99549.81;4914687;29;20076;-86
2024/03/10 03:13:53;;;;;;;48.45;25.33;;;;;;;3.00;100.00;99548.09;4931532;28;20082;-88
2024/03/10 03:16:20;;;;;;;49.15;25.85;;;;;;;2.97;100.00;99547.22;4937803;28;20055;-87
2024/03/10 03:18:47;;;;;;;51.05;27.60;;;;;;;2.98;100.00;99541.19;4944193;29;20047;-85
2024/03/10 03:21:17;;;;;;;50.50;24.80;;;;;;;2.94;100.00;99541.19;4925530;28;20050;-84
2024/03/10 03:23:47;;;;;;;49.13;26.73;;;;;;;2.95;100.00;99540.31;4938488;29;20054;-86
2024/03/10 03:26:17;;;;;;;52.95;28.27;;;;;;;2.92;100.00;99546.34;4937985;28;20039;-85
2024/03/10 03:28:47;;;;;;;45.25;25.33;;;;;;;2.90;100.00;99552.38;4946989;28;20043;-86
2024/03/10 03:31:14;;;;;;;49.40;26.00;;;;;;;2.90;100.00;99560.13;4936803;28;20278;-86
2024/03/10 03:33:41;;;;;;;50.92;25.25;;;;;;;2.88;100.00;99549.78;4941240;29;20079;-85
2024/03/10 03:36:07;;;;;;;44.85;23.60;;;;;;;2.84;100.00;99558.34;4936536;28;20408;-85
2024/03/10 03:38:35;;;;;;;50.53;26.40;;;;;;;2.84;100.00;99555.75;4937081;29;20118;-86
2024/03/10 03:41:01;;;;;;;51.40;27.30;;;;;;;2.81;100.00;99553.19;4925493;28;20048;-87
2024/03/10 03:43:28;;;;;;;48.55;27.48;;;;;;;2.79;100.00;99548.00;4940004;29;20094;-86
2024/03/10 03:45:55;;;;;;;45.17;24.67;;;;;;;2.76;100.00;99549.72;4934998;28;20066;-85
2024/03/10 03:48:21;;;;;;;49.08;27.85;;;;;;;2.76;100.00;99544.53;4942148;28;20072;-84
2024/03/10 03:50:51;;;;;;;47.03;26.60;;;;;;;2.72;100.00;99530.72;4944071;29;20039;-84
2024/03/10 03:53:20;;;;;;;50.25;27.73;;;;;;;2.68;100.00;99526.41;4944055;28;20054;-88
2024/03/10 03:55:47;;;;;;;47.67;26.83;;;;;;;2.64;100.00;99533.28;4929272;29;20134;-86
2024/03/10 03:58:13;;;;;;;53.47;28.13;;;;;;;2.63;100.00;99529.00;4938376;28;20098;-85
2024/03/10 04:00:40;;;;;;;55.05;27.45;;;;;;;2.61;100.00;99524.66;4939279;28;20047;-87
2024/03/10 04:03:09;;;;;;;46.47;26.58;;;;;;;2.58;100.00;99525.50;4929520;28;20599;-85
2024/03/10 04:05:41;;;;;;;49.28;27.73;;;;;;;2.57;100.00;99512.56;4942546;28;20059;-88
2024/03/10 04:08:12;;;;;;;51.03;25.85;;;;;;;2.59;100.00;99524.63;4928388;28;20134;-87
2024/03/10 04:10:39;;;;;;;52.80;28.23;;;;;;;2.55;100.00;99529.78;4935974;29;20048;-85
2024/03/10 04:13:06;;;;;;;52.97;27.10;;;;;;;2.56;100.00;99514.28;4944662;28;20039;-86
2024/03/10 04:15:35;;;;;;;54.25;28.48;;;;;;;2.54;100.00;99520.31;4933585;28;20078;-85
2024/03/10 04:18:05;;;;;;;51.35;27.67;;;;;;;2.47;100.00;99509.94;4941167;29;20067;-85
2024/03/10 04:20:35;;;;;;;54.65;28.85;;;;;;;2.52;100.00;99514.28;4951458;29;20090;-86
2024/03/10 04:23:05;;;;;;;51.05;28.02;;;;;;;2.48;100.00;99510.81;4923541;29;20054;-87
2024/03/10 04:25:33;;;;;;;64.60;31.00;;;;;;;2.46;100.00;99515.09;4938026;29;20055;-87
2024/03/10 04:28:03;;;;;;;58.17;30.60;;;;;;;2.46;100.00;99508.22;4931389;28;20046;-87
2024/03/10 04:30:29;;;;;;;51.90;29.17;;;;;;;2.46;100.00;99508.22;4943675;29;20115;-88
2024/03/10 04:32:56;;;;;;;51.40;27.25;;;;;;;2.46;100.00;99507.34;4948813;28;20113;-86
2024/03/10 04:35:24;;;;;;;50.00;27.30;;;;;;;2.44;100.00;99509.94;4944141;28;20043;-87
2024/03/10 04:37:52;;;;;;;55.38;29.38;;;;;;;2.40;100.00;99503.03;4923511;29;20674;-86
2024/03/10 04:40:19;;;;;;;54.20;29.35;;;;;;;2.40;100.00;99505.59;4942675;28;20051;-85
2024/03/10 04:42:48;;;;;;;60.88;29.20;;;;;;;2.42;100.00;99505.59;4929049;29;20043;-86
2024/03/10 04:45:17;;;;;;;58.17;31.13;;;;;;;2.39;100.00;99501.28;4938693;28;20055;-84
2024/03/10 04:47:44;;;;;;;57.60;29.73;;;;;;;2.37;100.00;99492.66;4935311;29;20259;-86
2024/03/10 04:50:14;;;;;;;58.10;31.35;;;;;;;2.38;100.00;99501.28;4946357;28;20035;-86
2024/03/10 04:52:42;;;;;;;61.08;30.95;;;;;;;2.34;100.00;99496.97;4937191;28;20047;-86
2024/03/10 04:55:15;;;;;;;58.33;29.48;;;;;;;2.33;100.00;99493.50;4945102;28;20146;-84
2024/03/10 04:57:44;;;;;;;62.83;31.33;;;;;;;2.31;100.00;99502.97;4943889;28;20070;-86
2024/03/10 05:00:16;;;;;;;61.50;30.58;;;;;;;2.33;100.00;99493.50;4944752;28;20106;-83
2024/03/10 05:02:42;;;;;;;58.70;31.52;;;;;;;2.33;100.00;99502.97;4949183;29;20044;-84
2024/03/10 05:05:10;;;;;;;58.95;31.05;;;;;;;2.31;100.00;99493.50;4945471;28;20055;-84
2024/03/10 05:07:39;;;;;;;60.80;31.45;;;;;;;2.31;100.00;99492.66;4939453;29;20055;-86
2024/03/10 05:10:06;;;;;;;69.03;32.03;;;;;;;2.31;100.00;99483.16;4934103;28;20062;-86
2024/03/10 05:12:35;;;;;;;59.03;31.63;;;;;;;2.32;100.00;99484.00;4925205;28;20075;-88
2024/03/10 05:15:05;;;;;;;67.20;32.50;;;;;;;2.33;100.00;99482.31;4950069;28;20051;-86
2024/03/10 05:17:31;;;;;;;58.70;31.52;;;;;;;2.33;100.00;99475.41;4946633;28;20071;-86
2024/03/10 05:19:59;;;;;;;61.03;32.40;;;;;;;2.34;100.00;99484.06;4921174;29;20052;-86
2024/03/10 05:22:30;;;;;;;57.67;32.15;;;;;;;2.33;100.00;99478.00;4936934;28;20044;-87
2024/03/10 05:24:58;;;;;;;69.40;33.35;;;;;;;2.31;100.00;99485.75;4947503;29;20051;-85
2024/03/10 05:27:28;;;;;;;62.95;33.38;;;;;;;2.33;100.00;99482.31;4949520;28;20035;-86
2024/03/10 05:29:54;;;;;;;57.17;30.60;;;;;;;2.31;100.00;99477.16;4940711;29;20052;-86
2024/03/10 05:32:21;;;;;;;65.63;33.65;;;;;;;2.33;100.00;99484.91;4921145;28;20138;-86
2024/03/10 05:34:56;;;;;;;70.68;34.20;;;;;;;2.31;100.00;99483.16;4924838;29;20138;-87
2024/03/10 05:37:24;;;;;;;65.38;34.65;;;;;;;2.31;100.00;99490.91;4930210;28;20083;-86
2024/03/10 05:39:50;;;;;;;69.00;33.72;;;;;;;2.33;100.00;99487.47;4943273;29;20054;-86
2024/03/10 05:42:20;;;;;;;67.95;33.00;;;;;;;2.29;100.00;99481.44;4928779;28;20059;-82
2024/03/10 05:44:47;;;;;;;64.53;31.95;;;;;;;2.26;100.00;99487.44;4932462;28;20050;-86
2024/03/10 05:47:14;;;;;;;69.68;32.83;;;;;;;2.26;100.00;99474.53;4944123;28;20392;-87
2024/03/10 05:49:41;;;;;;;62.47;31.38;;;;;;;2.28;100.00;99474.53;4946703;29;20525;-84
2024/03/10 05:52:10;;;;;;;63.40;32.88;;;;;;;2.27;100.00;99475.41;4943656;28;20073;-85
2024/03/10 05:54:38;;;;;;;67.80;32.65;;;;;;;2.25;100.00;99471.94;4945126;29;20058;-89
2024/03/10 05:57:06;;;;;;;62.35;33.17;;;;;;;2.27;100.00;99472.81;4946485;28;20047;-87
2024/03/10 05:59:33;;;;;;;70.82;33.55;;;;;;;2.27;100.00;99468.50;4924343;29;20056;-85
2024/03/10 06:02:00;;;;;;;65.15;32.47;;;;;;;2.29;100.00;99468.50;4927176;29;20107;-87
2024/03/10 06:04:27;;;;;;;62.97;32.53;;;;;;;2.30;100.00;99465.09;4941349;28;20051;-85
2024/03/10 06:06:53;;;;;;;69.18;33.53;;;;;;;2.36;100.00;99470.28;4929387;28;20055;-86
2024/03/10 06:09:23;;;;;;;64.18;32.85;;;;;;;2.42;100.00;99461.69;4940268;28;20500;-84
2024/03/10 06:11:51;;;;;;;67.13;30.70;;;;;;;2.39;100.00;99462.53;4927753;29;20387;-87
2024/03/10 06:14:23;;;;;;;64.40;33.83;;;;;;;2.43;100.00;99468.59;4946134;28;20051;-84
2024/03/10 06:16:51;;;;;;;68.13;33.85;;;;;;;2.42;100.00;99472.88;4937828;29;20116;-86
2024/03/10 06:27:39;;;;;;;61.00;32.20;;;;;;;2.54;100.00;99474.66;4941358;28;20051;-86
2024/03/10 06:30:11;;;;;;;62.10;31.05;;;;;;;2.58;100.00;99476.44;4938667;29;20044;-86
2024/03/10 06:32:40;;;;;;;65.40;31.80;;;;;;;2.59;100.00;99479.84;4921540;29;20054;-86
2024/03/10 06:35:09;;;;;;;64.00;31.40;;;;;;;2.67;100.00;99482.47;4928558;28;20051;-87
2024/03/10 06:37:36;;;;;;;55.90;30.13;;;;;;;2.66;100.00;99489.38;4928579;29;20102;-86
2024/03/10 06:40:13;;;;;;;58.67;30.48;;;;;;;2.76;100.00;99485.09;4933729;28;20046;-88
2024/03/10 06:42:48;;;;;;;56.80;30.73;;;;;;;2.87;100.00;99483.44;4936567;28;20314;-84
2024/03/10 06:45:20;;;;;;;62.88;33.95;;;;;;;2.92;100.00;99470.50;4954287;28;20449;-87
2024/03/10 06:47:56;;;;;;;61.10;31.33;;;;;;;3.00;100.00;99471.41;4953586;28;20046;-85
2024/03/10 06:53:21;;;;;;;59.45;30.88;;;;;;;3.18;100.00;99457.66;4957340;28;20050;-86
2024/03/10 06:55:49;;;;;;;62.42;30.38;;;;;;;3.51;100.00;99449.91;4923690;29;20036;-86
2024/03/10 06:58:17;;;;;;;57.58;30.45;;;;;;;3.60;100.00;99455.13;4925906;28;20146;-87
2024/03/10 07:01:10;;;;;;;55.83;32.08;;;;;;;3.61;100.00;99451.63;4951866;28;20074;-84
2024/03/10 07:03:52;;;;;;;58.25;30.85;;;;;;;3.75;100.00;99449.91;4958624;28;20043;-86
2024/03/10 07:09:52;;;;;;;62.05;30.70;;;;;;;4.03;100.00;99442.13;4952325;23;20098;-87
2024/03/10 07:12:44;;;;;;;55.65;27.92;;;;;;;3.97;100.00;99439.53;4954549;28;20043;-88
2024/03/10 07:15:18;;;;;;;51.83;28.73;;;;;;;3.90;100.00;99441.28;4930118;28;20661;-90
2024/03/10 07:17:45;;;;;;;51.63;28.58;;;;;;;4.09;100.00;99441.25;4948260;28;20759;-87
2024/03/10 07:20:15;;;;;;;55.45;28.85;;;;;;;3.93;100.00;99433.50;4927122;28;20126;-87
2024/03/10 07:22:45;;;;;;;53.05;28.65;;;;;;;3.91;100.00;99432.66;4973014;28;20629;-89
2024/03/10 07:25:20;;;;;;;51.88;29.08;;;;;;;3.89;100.00;99433.53;4925163;28;20083;-89
2024/03/10 07:27:47;;;;;;;47.58;28.38;;;;;;;4.19;100.00;99442.94;4946566;29;20103;-89
2024/03/10 07:30:15;;;;;;;52.65;28.08;;;;;;;4.25;100.00;99445.53;4947488;28;20047;-92
2024/03/10 07:32:42;;;;;;;55.22;28.50;;;;;;;4.01;100.00;99437.81;4945940;28;20047;-90
2024/03/10 07:35:16;;;;;;;52.63;26.95;;;;;;;4.30;100.00;99442.91;4935831;28;20122;-89
2024/03/10 07:37:47;;;;;;;54.90;27.90;;;;;;;4.19;100.00;99463.66;4969866;28;20054;-89
2024/03/10 07:40:19;;;;;;;53.17;28.85;;;;;;;4.19;100.00;99461.06;4932162;28;20111;-90
2024/03/10 07:42:54;;;;;;;51.05;27.55;;;;;;;4.37;100.00;99469.66;4967212;29;20044;-90
2024/03/10 07:45:28;;;;;;;49.72;27.40;;;;;;;4.53;100.00;99467.91;4921964;29;20047;-89
2024/03/10 07:48:01;;;;;;;49.33;28.55;;;;;;;4.76;100.00;99471.25;4928718;29;20055;-87
2024/03/10 07:50:29;;;;;;;47.30;27.63;;;;;;;4.99;100.00;99465.09;4933998;29;20079;-89
2024/03/10 07:53:01;;;;;;;50.55;28.48;;;;;;;4.99;100.00;99465.09;4939319;29;20666;-90
2024/03/10 07:55:32;;;;;;;50.13;27.42;;;;;;;4.78;100.00;99466.94;4946450;29;20107;-91
2024/03/10 07:58:05;;;;;;;50.35;27.13;;;;;;;4.66;100.00;99466.97;4919687;29;20028;-90
2024/03/10 08:00:35;;;;;;;45.92;26.90;;;;;;;4.88;100.00;99472.09;4924944;29;20027;-91
2024/03/10 08:03:07;;;;;;;49.05;26.55;;;;;;;4.84;100.00;99473.81;4953637;29;20317;-90
2024/03/10 08:05:37;;;;;;;45.70;25.92;;;;;;;5.00;100.00;99471.16;4908173;29;20055;-92
2024/03/10 08:10:48;;;;;;;42.67;25.70;;;;;;;4.97;100.00;99479.81;4927518;29;20374;-89
2024/03/10 08:13:16;;;;;;;45.30;26.40;;;;;;;5.14;100.00;99479.72;4927743;29;20058;-91
2024/03/10 08:15:47;;;;;;;51.33;27.48;;;;;;;5.27;100.00;99483.09;4920567;29;20051;-90
2024/03/10 08:18:14;;;;;;;49.30;25.85;;;;;;;5.36;100.00;99479.56;4928525;29;20044;-90
2024/03/10 08:20:42;;;;;;;43.95;27.23;;;;;;;4.94;100.00;99487.59;4940882;29;20135;-89
2024/03/10 08:23:13;;;;;;;48.63;26.02;;;;;;;5.12;100.00;99492.72;4908991;29;20120;-91
2024/03/10 08:25:53;;;;;;;48.65;26.58;;;;;;;5.16;100.00;99496.13;4922666;29;20042;-90
2024/03/10 08:28:23;;;;;;;46.95;26.90;;;;;;;5.40;100.00;99505.50;4956437;29;20048;-92
2024/03/10 08:30:54;;;;;;;41.40;24.00;;;;;;;5.46;100.00;99513.25;4950763;29;20047;-91
2024/03/10 08:33:24;;;;;;;44.45;26.35;;;;;;;5.39;100.00;99506.38;4944739;28;20036;-88
2024/03/10 08:38:35;;;;;;;46.58;26.63;;;;;;;5.52;100.00;99499.38;4965440;28;20050;-89
2024/03/10 08:41:06;;;;;;;43.10;25.40;;;;;;;5.62;100.00;99506.22;4943924;29;20058;-91
2024/03/10 08:43:34;;;;;;;44.47;25.02;;;;;;;5.57;100.00;99502.81;4927108;29;20051;-90
2024/03/10 08:46:03;;;;;;;44.28;25.67;;;;;;;5.80;100.00;99510.41;4960745;23;20039;-88
2024/03/10 08:48:39;;;;;;;42.33;25.38;;;;;;;5.84;100.00;99505.19;4959313;23;20099;-87
2024/03/10 08:51:06;;;;;;;42.30;24.15;;;;;;;6.05;100.00;99499.84;4896568;29;20044;-85
2024/03/10 08:53:33;;;;;;;38.65;23.83;;;;;;;6.13;100.00;99500.63;4919249;29;20137;-85
2024/03/10 08:56:00;;;;;;;42.25;25.35;;;;;;;5.97;100.00;99505.09;4905218;29;20051;-85
2024/03/10 08:58:28;;;;;;;39.22;24.65;;;;;;;5.77;100.00;99494.00;4911123;29;20100;-85
2024/03/10 09:00:54;;;;;;;44.28;24.63;;;;;;;6.03;100.00;99496.41;4932124;29;20057;-87
2024/03/10 09:03:22;;;;;;;39.63;23.20;;;;;;;6.15;100.00;99492.81;4914148;29;20075;-86
2024/03/10 09:05:49;;;;;;;42.17;22.58;;;;;;;6.06;100.00;99485.13;4911307;29;20052;-85
2024/03/10 09:08:16;;;;;;;38.70;24.52;;;;;;;6.19;100.00;99475.47;4939775;29;20044;-87
2024/03/10 09:10:43;;;;;;;41.38;24.63;;;;;;;5.85;100.00;99468.81;4928680;29;20393;-84
2024/03/10 09:13:13;;;;;;;36.80;23.45;;;;;;;5.67;100.00;99469.84;4911365;29;20043;-84
2024/03/10 09:15:41;;;;;;;41.03;25.30;;;;;;;5.56;100.00;99469.06;4931697;29;20039;-86
2024/03/10 09:18:07;;;;;;;42.70;24.50;;;;;;;5.57;100.00;99474.25;4954593;29;20044;-86
2024/03/10 09:20:34;;;;;;;41.25;25.05;;;;;;;5.89;100.00;99462.75;4922753;29;20055;-86
2024/03/10 09:23:03;;;;;;;41.85;25.05;;;;;;;5.84;100.00;99468.84;4917911;29;20067;-86
2024/03/10 09:25:32;;;;;;;42.10;25.45;;;;;;;6.12;100.00;99479.88;4904843;29;20043;-85
2024/03/10 09:27:59;;;;;;;39.22;23.75;;;;;;;6.01;100.00;99473.91;4929246;29;20102;-86
2024/03/10 09:30:30;;;;;;;43.28;25.17;;;;;;;6.18;100.00;99478.94;4912118;29;20059;-86
2024/03/10 09:35:58;;;;;;;40.38;24.38;;;;;;;6.13;100.00;99482.44;4908865;29;20056;-86
2024/03/10 09:38:44;;;;;;;36.97;21.85;;;;;;;6.22;100.00;99484.09;4920747;29;20058;-86
2024/03/10 09:41:12;;;;;;;41.63;24.58;;;;;;;6.28;100.00;99464.97;4925446;29;20130;-88
2024/03/10 09:43:46;;;;;;;38.63;23.55;;;;;;;6.22;100.00;99465.91;4920343;29;20107;-85
2024/03/10 09:46:16;;;;;;;42.10;24.58;;;;;;;6.29;100.00;99464.09;4928441;29;20047;-87
2024/03/10 09:48:55;;;;;;;40.00;24.58;;;;;;;6.36;100.00;99457.97;4909843;29;20052;-86
2024/03/10 09:51:30;;;;;;;38.35;24.33;;;;;;;6.56;100.00;99439.53;4910860;29;20048;-85
2024/03/10 09:54:13;;;;;;;35.88;22.67;;;;;;;6.74;100.00;99441.06;4916565;29;20024;-85
2024/03/10 09:59:53;;;;;;;40.88;23.73;;;;;;;6.61;100.00;99416.09;4918693;29;20147;-86
2024/03/10 10:06:27;;;;;;;38.00;22.67;;;;;;;6.57;100.00;99410.06;4927743;29;20259;-85
2024/03/10 10:08:59;;;;;;;38.45;22.92;;;;;;;6.61;100.00;99405.69;4928449;29;20059;-83
2024/03/10 10:11:30;;;;;;;38.70;23.77;;;;;;;6.58;100.00;99403.09;4942853;29;20060;-84
2024/03/10 10:14:23;;;;;;;41.20;23.55;;;;;;;6.35;100.00;99404.25;4925738;29;20071;-85
2024/03/10 10:16:59;;;;;;;40.90;24.65;;;;;;;6.87;100.00;99405.34;4928127;29;20051;-86
2024/03/10 10:19:29;;;;;;;40.17;23.35;;;;;;;7.22;100.00;99405.69;4935642;29;20043;-85
2024/03/10 10:21:58;;;;;;;35.05;22.45;;;;;;;7.39;100.00;99410.63;4883765;29;20043;-85
2024/03/10 10:24:25;;;;;;;35.25;22.33;;;;;;;7.42;100.00;99405.38;4918458;29;20035;-85
2024/03/10 10:27:10;;;;;;;37.47;23.90;;;;;;;7.32;100.00;99401.22;4913591;29;20055;-85
2024/03/10 10:29:53;;;;;;;36.13;23.15;;;;;;;7.41;100.00;99399.31;4912552;29;20055;-86
2024/03/10 10:32:26;;;;;;;34.72;23.02;;;;;;;7.18;100.00;99404.03;4918605;29;20104;-85
2024/03/10 10:34:57;;;;;;;36.05;22.10;;;;;;;7.60;100.00;99401.59;4913184;29;20047;-86
2024/03/10 10:37:44;;;;;;;38.22;22.67;;;;;;;7.72;100.00;99396.19;4925743;29;20040;-85
2024/03/10 10:40:32;;;;;;;33.08;22.83;;;;;;;7.95;100.00;99394.91;4933249;29;20044;-85
2024/03/10 10:43:06;;;;;;;37.17;22.70;;;;;;;7.92;100.00;99403.63;4968376;24;20071;-84
2024/03/10 10:45:37;;;;;;;;;;;;;;;7.85;100.00;99395.97;4952738;28;20055;-84
2024/03/10 10:51:08;;;;;;;34.88;21.55;;;;;;;8.07;100.00;99409.44;4940139;28;20031;-86
2024/03/10 10:53:42;;;;;;;29.42;19.88;;;;;;;8.19;100.00;99419.66;4954389;29;20074;-83
2024/03/10 10:56:15;;;;;;;36.73;22.40;;;;;;;8.21;100.00;99424.84;4939332;29;20039;-83
2024/03/10 10:58:57;;;;;;;39.53;23.20;;;;;;;8.15;100.00;99431.03;4931390;29;20103;-85
2024/03/10 11:01:31;;;;;;;36.15;24.45;;;;;;;7.87;100.00;99426.31;4941275;29;20040;-86
2024/03/10 11:03:58;;;;;;;34.03;21.95;;;;;;;7.66;100.00;99424.09;4934431;29;20050;-85
2024/03/10 11:19:27;;;;;;;34.50;22.52;;;;;;;8.55;100.00;99400.72;4951245;28;20143;-89
2024/03/10 11:21:57;;;;;;;30.98;20.65;;;;;;;8.52;100.00;99400.81;4930107;29;20113;-90
2024/03/10 11:24:26;;;;;;;33.17;22.70;;;;;;;8.42;100.00;99382.72;4944990;29;20426;-89
2024/03/10 11:27:15;;;;;;;32.72;19.90;;;;;;;8.60;100.00;99378.91;4904170;29;20062;-89
2024/03/10 11:29:42;;;;;;;33.03;21.08;;;;;;;8.86;100.00;99356.56;4926350;29;20427;-90
2024/03/10 11:32:36;;;;;;;34.40;21.88;;;;;;;9.12;99.60;99329.00;4921483;29;20489;-90
2024/03/10 11:35:09;;;;;;;31.48;22.75;;;;;;;8.64;100.00;99311.00;4924426;29;20134;-87
2024/03/10 11:37:38;;;;;;;34.67;22.08;;;;;;;8.70;100.00;99306.50;4910201;29;20055;-90
2024/03/10 11:40:15;;;;;;;34.38;21.55;;;;;;;8.57;100.00;99313.72;4901664;29;20067;-88
2024/03/10 11:53:33;;;;;;;27.15;20.30;;;;;;;10.10;95.15;99301.16;5395573;23;20044;-84
2024/03/10 11:56:13;;;;;;;28.23;20.90;;;;;;;10.32;92.98;99300.53;4916839;28;20091;-84
2024/03/10 12:04:39;;;;;;;26.02;18.73;;;;;;;14.92;64.47;99305.59;5600163;23;20047;-85
2024/03/10 12:07:08;;;;;;;28.95;19.15;;;;;;;14.74;61.27;99311.75;4949116;28;20040;-85
2024/03/10 12:09:47;;;;;;;26.27;19.13;;;;;;;13.49;65.37;99323.41;4931618;28;22590;-85
2024/03/10 12:12:18;;;;;;;23.58;18.55;;;;;;;12.48;69.13;99324.78;4940278;28;20057;-85
2024/03/10 12:14:55;;;;;;;25.13;17.50;;;;;;;12.31;71.07;99333.28;4924185;29;20052;-84
2024/03/10 12:17:32;;;;;;;24.55;18.20;;;;;;;12.08;71.87;99329.75;4944521;28;20063;-84
2024/03/10 12:20:14;;;;;;;24.10;18.52;;;;;;;12.12;71.67;99335.72;4943597;28;20058;-87
2024/03/10 12:22:54;;;;;;;26.83;18.10;;;;;;;12.42;71.21;99325.00;4930890;28;20083;-84
2024/03/10 12:25:32;;;;;;;24.92;17.85;;;;;;;12.50;70.23;99329.97;4922145;28;20114;-84
2024/03/10 12:28:09;;;;;;;26.23;18.23;;;;;;;12.15;70.19;99332.13;4941620;28;20415;-83
2024/03/10 12:30:41;;;;;;;26.02;17.92;;;;;;;12.15;70.55;99337.38;4931767;28;20038;-83
2024/03/10 12:33:12;;;;;;;24.58;18.08;;;;;;;12.72;69.37;99328.22;4938458;29;20154;-85
2024/03/10 12:35:43;;;;;;;23.63;17.58;;;;;;;13.38;66.61;99331.75;4963483;28;20046;-85
2024/03/10 12:38:25;;;;;;;25.52;18.08;;;;;;;12.34;68.65;99321.81;4942454;29;20031;-84
2024/03/10 12:41:05;;;;;;;28.20;18.27;;;;;;;12.52;69.10;99330.78;4926945;28;20042;-83
2024/03/10 12:44:01;;;;;;;26.58;19.08;;;;;;;12.43;69.10;99315.38;4953314;28;20031;-83
2024/03/10 12:46:31;;;;;;;22.92;17.17;;;;;;;12.22;69.36;99323.97;4948101;28;20044;-84
2024/03/10 12:49:07;;;;;;;24.42;17.42;;;;;;;12.32;69.59;99311.38;4946296;28;20039;-84
2024/03/10 12:51:41;;;;;;;25.88;18.70;;;;;;;12.41;68.94;99303.16;4949508;28;20054;-84